Орск

Карта отелей и гостиниц, располагающихся рядом с аэропортом Орск :

Орск Оренбургская область 51° 4' 21" N, 58° 35' 44.6388" E
Код аэродрома ИКАО
UWOR
Код аэродрома RU
УВОР
Координаты
N51.07250° E058.59573°
Превышение над уровнем моря
277
Основная полоса
07L/25R
Курс магнитный
065,8/245,8
Длина основной ВПП
2900
Ширина основной ВПП
42
Покрытие основной ВПП
Твёрдое (асфальтобетон)
Освещение ВПП
Постоянное
Тип: 
Аэродром
Класс аэродрома: 
Международный
Принадлежность: 
ГА
Статус: 
Действующий
Сайт: 
http://аэропорт-орск.рф/
E-mail аэродрома: 
info@aviaorsk.ru
Страна: 
Россия
Регион: 
Оренбургская область
Дополнительная информация: 
Оператор: МУП города Орск "Аэропорт Орск". Аэропорт 1-го класса. Нкр (500)м. Аэропорт работает с авиакомпаниями, которым нужна дозаправка. Поэтому в расписании рейсов появляются также транзитные.
Погода: 

Авиационная погода в Орске

Регион: 
Погода METAR: 
UWOR 171700Z 18003MPS CAVOK 12/04 Q1017 R07/CLRD65 NOSIG RMK QFE738/0984
Время наблюдения
2021-04-17T17:00:00Z
Температура C
12.0
Точка росы
4.0
Направление ветра
180
Скорость ветра (узлы)
6
Метео видимость
6.21
Явления погоды
Условия полета
VFR
Аэропорт подробнее: 

Найти трансфер

С помощью этой формы Вы можете найти трансфер из аэропорта Орск в город, аэропорт или вокзал:

Карта места

Javascript is required to view this map.

Погода в аэропортах:

Авиационная погода в аэропорту Новый

Регион: 
Погода METAR: 
UHHH 171630Z 19001MPS 0050 R23R/P2000U PRFG VV002 00/00 Q1012 R23R/090060 NOSIG RMK QBB060 QFE753/1004
Время наблюдения
2021-04-17T16:30:00Z
Температура C
0.0
Точка росы
0.0
Направление ветра
190
Скорость ветра (узлы)
2
Метео видимость
0.03
Явления погоды
PRFG
Условия полета
LIFR
Аэропорт подробнее: 

Авиационная погода в Ботсфьорде

Регион: 
Погода METAR: 
ENBS 161920Z 27037G47KT 9999 VCSH SCT020 SCT041 03/01 Q1023
Время наблюдения
2021-04-16T19:20:00Z
Температура C
3.0
Точка росы
1.0
Направление ветра
270
Скорость ветра (узлы)
37
Метео видимость
6.21
Явления погоды
VCSH
Условия полета
VFR

Авиационная погода в Полярном

Регион: 
Погода METAR: 
UERP 171700Z 30006G12MPS 9999 -SHSN DRSN BKN017CB OVC100 M12/M14 Q0995 NOSIG RMK QFE702
Время наблюдения
2021-04-17T17:00:00Z
Температура C
-12.0
Точка росы
-14.0
Направление ветра
300
Скорость ветра (узлы)
12
Метео видимость
6.21
Явления погоды
-SHSN DRSN
Условия полета
MVFR
Аэропорт подробнее: 

Авиационная погода в Ставрополе

Регион: 
Погода METAR: 
URMT 171630Z 00000MPS 9999 -RA SCT040 09/06 Q1021 R25/290250 NOSIG RMK QFE727
Время наблюдения
2021-04-17T16:30:00Z
Температура C
9.0
Точка росы
6.0
Направление ветра
0
Скорость ветра (узлы)
0
Метео видимость
6.21
Явления погоды
-RA
Условия полета
VFR
Аэропорт подробнее: